Time,TemperatureF,DewpointF,PressureIn,WindDirection,WindDirectionDegrees,WindSpeedMPH,WindSpeedGustMPH,Humidity,HourlyPrecipIn,Conditions,Clouds,dailyrainin,SoftwareType,DateUTC
2013-09-23 00:01:00,61.3,57.7,29.88,NE,41,0.0,0.0,88,0.00,,,0.00,WeatherCatV1.02B3,2013-09-23 05:01:00,
2013-09-23 00:06:00,61.3,57.7,29.88,NE,41,0.0,0.0,88,0.00,,,0.00,WeatherCatV1.02B3,2013-09-23 05:06:00,
2013-09-23 00:11:00,61.1,57.8,29.88,NE,41,0.0,0.0,89,0.00,,,0.00,WeatherCatV1.02B3,2013-09-23 05:11:00,
2013-09-23 00:16:00,61.0,57.7,29.88,NE,41,0.0,0.0,89,0.00,,,0.00,WeatherCatV1.02B3,2013-09-23 05:16:00,
2013-09-23 00:21:00,60.9,57.6,29.88,NE,41,0.0,0.0,89,0.00,,,0.00,WeatherCatV1.02B3,2013-09-23 05:21:00,
2013-09-23 00:26:00,60.8,57.5,29.88,NE,41,0.0,0.0,89,0.00,,,0.00,WeatherCatV1.02B3,2013-09-23 05:26:00,
2013-09-23 00:31:00,60.7,57.4,29.88,NE,41,0.0,0.0,89,0.00,,,0.00,WeatherCatV1.02B3,2013-09-23 05:31:00,
2013-09-23 00:36:00,60.6,57.3,29.88,NE,41,0.0,0.0,89,0.00,,,0.00,WeatherCatV1.02B3,2013-09-23 05:36:00,
2013-09-23 00:41:00,60.4,57.1,29.87,NE,41,0.0,0.0,89,0.00,,,0.00,WeatherCatV1.02B3,2013-09-23 05:41:00,
2013-09-23 00:46:00,60.3,57.0,29.87,NE,41,0.0,0.0,89,0.00,,,0.00,WeatherCatV1.02B3,2013-09-23 05:46:00,
2013-09-23 00:51:00,60.1,56.8,29.87,NE,41,0.0,0.0,89,0.00,,,0.00,WeatherCatV1.02B3,2013-09-23 05:51:00,
2013-09-23 00:56:00,60.0,57.1,29.87,NE,41,0.0,0.0,90,0.00,,,0.00,WeatherCatV1.02B3,2013-09-23 05:56:00,
2013-09-23 01:01:00,59.8,56.9,29.87,NE,41,0.0,0.0,90,0.00,,,0.00,WeatherCatV1.02B3,2013-09-23 06:01:00,
2013-09-23 01:06:00,59.7,56.8,29.87,NE,41,0.0,0.0,90,0.00,,,0.00,WeatherCatV1.02B3,2013-09-23 06:06:00,
2013-09-23 01:11:00,59.7,56.8,29.87,NE,41,0.0,0.0,90,0.00,,,0.00,WeatherCatV1.02B3,2013-09-23 06:11:00,
2013-09-23 01:16:00,59.6,56.7,29.87,NE,41,0.0,0.0,90,0.00,,,0.00,WeatherCatV1.02B3,2013-09-23 06:16:00,
2013-09-23 01:21:00,59.6,57.0,29.87,NE,41,0.0,0.0,91,0.00,,,0.00,WeatherCatV1.02B3,2013-09-23 06:21:00,
2013-09-23 01:26:00,59.5,56.9,29.87,NE,41,0.0,0.0,91,0.00,,,0.00,WeatherCatV1.02B3,2013-09-23 06:26:00,
2013-09-23 01:31:00,59.3,56.7,29.87,NE,41,0.0,0.0,91,0.00,,,0.00,WeatherCatV1.02B3,2013-09-23 06:31:00,
2013-09-23 01:36:00,59.2,56.6,29.87,NE,41,0.0,0.0,91,0.00,,,0.00,WeatherCatV1.02B3,2013-09-23 06:36:00,
2013-09-23 01:41:00,59.1,56.5,29.87,NE,41,0.0,0.0,91,0.00,,,0.00,WeatherCatV1.02B3,2013-09-23 06:41:00,
2013-09-23 01:46:00,59.0,56.4,29.87,NE,41,0.0,0.0,91,0.00,,,0.00,WeatherCatV1.02B3,2013-09-23 06:46:00,
2013-09-23 01:51:00,58.9,56.3,29.87,NE,41,0.0,0.0,91,0.00,,,0.00,WeatherCatV1.02B3,2013-09-23 06:51:00,
2013-09-23 01:56:00,58.8,56.2,29.87,NE,41,0.0,0.0,91,0.00,,,0.00,WeatherCatV1.02B3,2013-09-23 06:56:00,
2013-09-23 02:01:00,58.7,56.4,29.87,NE,41,0.0,0.0,92,0.00,,,0.00,WeatherCatV1.02B3,2013-09-23 07:01:00,
2013-09-23 02:06:00,58.7,56.4,29.87,NE,41,0.0,0.0,92,0.00,,,0.00,WeatherCatV1.02B3,2013-09-23 07:06:00,
2013-09-23 02:11:00,58.6,56.3,29.87,NE,41,0.0,0.0,92,0.00,,,0.00,WeatherCatV1.02B3,2013-09-23 07:11:00,
2013-09-23 02:16:00,58.5,56.2,29.87,NE,41,0.0,0.0,92,0.00,,,0.00,WeatherCatV1.02B3,2013-09-23 07:16:00,
2013-09-23 02:21:00,58.5,56.2,29.87,NE,41,0.0,0.0,92,0.00,,,0.00,WeatherCatV1.02B3,2013-09-23 07:21:00,
2013-09-23 02:26:00,58.4,56.1,29.87,NE,41,0.0,0.0,92,0.00,,,0.00,WeatherCatV1.02B3,2013-09-23 07:26:00,
2013-09-23 02:31:00,58.4,56.1,29.87,NE,41,0.0,0.0,92,0.00,,,0.00,WeatherCatV1.02B3,2013-09-23 07:31:00,
2013-09-23 02:36:00,58.3,56.0,29.87,NE,41,0.0,0.0,92,0.00,,,0.00,WeatherCatV1.02B3,2013-09-23 07:36:00,
2013-09-23 02:41:00,58.3,56.0,29.87,NE,41,0.0,0.0,92,0.00,,,0.00,WeatherCatV1.02B3,2013-09-23 07:41:00,
2013-09-23 02:46:00,58.2,55.9,29.87,NE,41,0.0,0.0,92,0.00,,,0.00,WeatherCatV1.02B3,2013-09-23 07:46:00,
2013-09-23 02:51:00,58.2,55.9,29.87,NE,41,0.0,0.0,92,0.00,,,0.00,WeatherCatV1.02B3,2013-09-23 07:51:00,
2013-09-23 02:56:00,58.1,55.8,29.87,NE,41,0.0,0.0,92,0.00,,,0.00,WeatherCatV1.02B3,2013-09-23 07:56:00,
2013-09-23 03:01:00,58.0,55.7,29.87,NE,41,0.0,0.0,92,0.00,,,0.00,WeatherCatV1.02B3,2013-09-23 08:01:00,
2013-09-23 03:06:00,57.9,55.6,29.87,NE,41,0.0,0.0,92,0.00,,,0.00,WeatherCatV1.02B3,2013-09-23 08:06:00,
2013-09-23 03:11:00,57.8,55.5,29.87,NE,41,0.0,0.0,92,0.00,,,0.00,WeatherCatV1.02B3,2013-09-23 08:11:00,
2013-09-23 03:16:00,57.7,55.4,29.88,NE,41,0.0,0.0,92,0.00,,,0.00,WeatherCatV1.02B3,2013-09-23 08:16:00,
2013-09-23 03:21:00,57.7,55.7,29.88,NE,41,0.0,0.0,93,0.00,,,0.00,WeatherCatV1.02B3,2013-09-23 08:21:00,
2013-09-23 03:26:00,57.5,55.2,29.87,NE,41,0.0,0.0,92,0.00,,,0.00,WeatherCatV1.02B3,2013-09-23 08:26:00,
2013-09-23 03:31:00,57.4,55.1,29.88,NE,41,0.0,0.0,92,0.00,,,0.00,WeatherCatV1.02B3,2013-09-23 08:31:00,
2013-09-23 03:36:00,57.3,55.0,29.88,NE,41,0.0,0.0,92,0.00,,,0.00,WeatherCatV1.02B3,2013-09-23 08:36:00,
2013-09-23 03:41:00,57.2,55.2,29.88,NE,41,0.0,0.0,93,0.00,,,0.00,WeatherCatV1.02B3,2013-09-23 08:41:00,
2013-09-23 03:46:00,57.2,55.2,29.88,NE,41,0.0,0.0,93,0.00,,,0.00,WeatherCatV1.02B3,2013-09-23 08:46:00,
2013-09-23 03:51:00,57.1,55.1,29.88,NE,41,0.0,0.0,93,0.00,,,0.00,WeatherCatV1.02B3,2013-09-23 08:51:00,
2013-09-23 03:56:00,57.0,55.0,29.88,NE,41,0.0,0.0,93,0.00,,,0.00,WeatherCatV1.02B3,2013-09-23 08:56:00,
2013-09-23 04:01:00,57.0,55.0,29.88,NE,41,0.0,0.0,93,0.00,,,0.00,WeatherCatV1.02B3,2013-09-23 09:01:00,
2013-09-23 04:06:00,57.0,55.0,29.88,NE,41,0.0,0.0,93,0.00,,,0.00,WeatherCatV1.02B3,2013-09-23 09:06:00,
2013-09-23 04:11:00,57.0,55.0,29.88,NE,41,0.0,0.0,93,0.00,,,0.00,WeatherCatV1.02B3,2013-09-23 09:11:00,
2013-09-23 04:16:00,56.9,54.9,29.88,NE,41,0.0,0.0,93,0.00,,,0.00,WeatherCatV1.02B3,2013-09-23 09:16:00,
2013-09-23 04:21:00,56.9,54.9,29.88,NE,41,0.0,0.0,93,0.00,,,0.00,WeatherCatV1.02B3,2013-09-23 09:21:00,
2013-09-23 04:26:00,56.8,54.8,29.88,NE,41,0.0,0.0,93,0.00,,,0.00,WeatherCatV1.02B3,2013-09-23 09:26:00,
2013-09-23 04:31:00,56.7,54.7,29.88,NE,41,0.0,0.0,93,0.00,,,0.00,WeatherCatV1.02B3,2013-09-23 09:31:00,
2013-09-23 04:36:00,56.7,54.7,29.88,NE,41,0.0,0.0,93,0.00,,,0.00,WeatherCatV1.02B3,2013-09-23 09:36:00,
2013-09-23 04:41:00,56.7,54.7,29.89,NE,41,0.0,0.0,93,0.00,,,0.00,WeatherCatV1.02B3,2013-09-23 09:41:00,
2013-09-23 04:46:00,56.7,54.7,29.89,NE,41,0.0,0.0,93,0.00,,,0.00,WeatherCatV1.02B3,2013-09-23 09:46:00,
2013-09-23 04:51:00,56.6,54.6,29.89,NE,41,0.0,0.0,93,0.00,,,0.00,WeatherCatV1.02B3,2013-09-23 09:51:00,
2013-09-23 04:56:00,56.7,54.7,29.89,NE,41,0.0,0.0,93,0.00,,,0.00,WeatherCatV1.02B3,2013-09-23 09:56:00,
2013-09-23 05:01:00,56.6,54.6,29.89,NE,41,0.0,0.0,93,0.00,,,0.00,WeatherCatV1.02B3,2013-09-23 10:01:00,
2013-09-23 05:06:00,56.5,54.5,29.89,NE,41,0.0,0.0,93,0.00,,,0.00,WeatherCatV1.02B3,2013-09-23 10:06:00,
2013-09-23 05:11:00,56.4,54.4,29.89,NE,41,0.0,0.0,93,0.00,,,0.00,WeatherCatV1.02B3,2013-09-23 10:11:00,
2013-09-23 05:16:00,56.4,54.4,29.89,NE,41,0.0,0.0,93,0.00,,,0.00,WeatherCatV1.02B3,2013-09-23 10:16:00,
2013-09-23 05:21:00,56.3,54.3,29.89,NE,41,0.0,0.0,93,0.00,,,0.00,WeatherCatV1.02B3,2013-09-23 10:21:00,
2013-09-23 05:26:00,56.3,54.3,29.90,NE,41,0.0,0.0,93,0.00,,,0.00,WeatherCatV1.02B3,2013-09-23 10:26:00,
2013-09-23 05:31:00,56.3,54.6,29.90,NE,41,0.0,0.0,94,0.00,,,0.00,WeatherCatV1.02B3,2013-09-23 10:31:00,
2013-09-23 05:36:00,56.3,54.6,29.90,NE,41,0.0,0.0,94,0.00,,,0.00,WeatherCatV1.02B3,2013-09-23 10:36:00,
2013-09-23 05:41:00,56.2,54.5,29.90,NE,41,0.0,0.0,94,0.00,,,0.00,WeatherCatV1.02B3,2013-09-23 10:41:00,
2013-09-23 05:46:00,56.2,54.5,29.90,NE,41,0.0,0.0,94,0.00,,,0.00,WeatherCatV1.02B3,2013-09-23 10:46:00,
2013-09-23 05:51:00,56.2,54.5,29.90,NE,41,0.0,0.0,94,0.00,,,0.00,WeatherCatV1.02B3,2013-09-23 10:51:00,
2013-09-23 05:56:00,56.2,54.5,29.90,NE,41,0.0,0.0,94,0.00,,,0.00,WeatherCatV1.02B3,2013-09-23 10:56:00,
2013-09-23 06:01:00,56.2,54.5,29.90,NE,41,0.0,0.0,94,0.00,,,0.00,WeatherCatV1.02B3,2013-09-23 11:01:00,
2013-09-23 06:06:00,56.2,54.5,29.90,NE,41,0.0,0.0,94,0.00,,,0.00,WeatherCatV1.02B3,2013-09-23 11:06:00,
2013-09-23 06:11:00,56.2,54.5,29.90,NE,41,0.0,0.0,94,0.00,,,0.00,WeatherCatV1.02B3,2013-09-23 11:11:00,
2013-09-23 06:16:00,56.1,54.4,29.90,NE,41,0.0,0.0,94,0.00,,,0.00,WeatherCatV1.02B3,2013-09-23 11:16:00,
2013-09-23 06:21:00,56.1,54.4,29.90,NE,41,0.0,0.0,94,0.00,,,0.00,WeatherCatV1.02B3,2013-09-23 11:21:00,
2013-09-23 06:26:00,56.1,54.4,29.90,NE,41,0.0,0.0,94,0.00,,,0.00,WeatherCatV1.02B3,2013-09-23 11:26:00,
2013-09-23 06:31:00,56.1,54.4,29.90,NE,41,0.0,0.0,94,0.00,,,0.00,WeatherCatV1.02B3,2013-09-23 11:31:00,
2013-09-23 06:36:00,56.2,54.5,29.90,NE,41,0.0,0.0,94,0.00,,,0.00,WeatherCatV1.02B3,2013-09-23 11:36:00,
2013-09-23 06:41:00,56.3,54.6,29.90,NE,41,0.0,0.0,94,0.00,,,0.00,WeatherCatV1.02B3,2013-09-23 11:41:00,
2013-09-23 06:46:00,56.3,54.6,29.90,NE,41,0.0,0.0,94,0.00,,,0.00,WeatherCatV1.02B3,2013-09-23 11:46:00,
2013-09-23 06:51:00,56.3,54.6,29.90,NE,41,0.0,0.0,94,0.00,,,0.00,WeatherCatV1.02B3,2013-09-23 11:51:00,
2013-09-23 06:56:00,56.3,54.6,29.90,NE,41,0.0,0.0,94,0.00,,,0.00,WeatherCatV1.02B3,2013-09-23 11:56:00,
2013-09-23 07:01:00,56.3,54.6,29.90,NE,41,0.0,0.0,94,0.00,,,0.00,WeatherCatV1.02B3,2013-09-23 12:01:00,
2013-09-23 07:06:00,56.4,54.7,29.90,NE,41,0.0,0.0,94,0.00,,,0.00,WeatherCatV1.02B3,2013-09-23 12:06:00,
2013-09-23 07:11:00,56.4,55.0,29.90,NE,41,0.0,0.0,95,0.00,,,0.00,WeatherCatV1.02B3,2013-09-23 12:11:00,
2013-09-23 07:16:00,56.5,55.1,29.91,NE,41,0.0,0.0,95,0.00,,,0.00,WeatherCatV1.02B3,2013-09-23 12:16:00,
2013-09-23 07:21:00,56.6,54.9,29.90,NE,41,0.0,0.0,94,0.00,,,0.00,WeatherCatV1.02B3,2013-09-23 12:21:00,
2013-09-23 07:26:00,56.7,55.0,29.90,NE,41,0.0,0.0,94,0.00,,,0.00,WeatherCatV1.02B3,2013-09-23 12:26:00,
2013-09-23 07:31:00,56.8,55.1,29.90,NE,41,0.0,0.0,94,0.00,,,0.00,WeatherCatV1.02B3,2013-09-23 12:31:00,
2013-09-23 07:36:00,56.9,55.5,29.91,NE,41,0.0,0.0,95,0.00,,,0.00,WeatherCatV1.02B3,2013-09-23 12:36:00,
2013-09-23 07:41:00,57.1,55.7,29.91,NE,41,0.0,0.0,95,0.00,,,0.00,WeatherCatV1.02B3,2013-09-23 12:41:00,
2013-09-23 07:46:00,57.2,55.5,29.91,NE,41,2.0,2.0,94,0.00,,,0.00,WeatherCatV1.02B3,2013-09-23 12:46:00,
2013-09-23 07:51:00,57.5,55.8,29.91,NE,41,0.0,1.0,94,0.00,,,0.00,WeatherCatV1.02B3,2013-09-23 12:51:00,
2013-09-23 07:56:00,57.8,56.1,29.91,NE,41,1.0,2.0,94,0.00,,,0.00,WeatherCatV1.02B3,2013-09-23 12:56:00,
2013-09-23 08:01:00,58.2,56.5,29.90,NE,41,2.0,2.0,94,0.00,,,0.00,WeatherCatV1.02B3,2013-09-23 13:01:00,
2013-09-23 08:06:00,58.6,56.6,29.91,NE,41,0.0,1.0,93,0.00,,,0.00,WeatherCatV1.02B3,2013-09-23 13:06:00,
2013-09-23 08:11:00,59.0,57.0,29.91,NE,41,0.0,0.0,93,0.00,,,0.00,WeatherCatV1.02B3,2013-09-23 13:11:00,
2013-09-23 08:16:00,59.3,57.3,29.91,NE,41,0.0,4.0,93,0.00,,,0.00,WeatherCatV1.02B3,2013-09-23 13:16:00,
2013-09-23 08:21:00,59.7,57.4,29.91,NE,41,0.0,1.0,92,0.00,,,0.00,WeatherCatV1.02B3,2013-09-23 13:21:00,
2013-09-23 08:26:00,60.0,57.4,29.91,NE,41,1.0,3.0,91,0.00,,,0.00,WeatherCatV1.02B3,2013-09-23 13:26:00,
2013-09-23 08:31:00,60.6,58.0,29.91,NE,41,0.0,4.0,91,0.00,,,0.00,WeatherCatV1.02B3,2013-09-23 13:31:00,
2013-09-23 08:36:00,61.1,58.1,29.91,NE,41,0.0,0.0,90,0.00,,,0.00,WeatherCatV1.02B3,2013-09-23 13:36:00,
2013-09-23 08:41:00,61.6,58.6,29.91,NE,41,0.0,0.0,90,0.00,,,0.00,WeatherCatV1.02B3,2013-09-23 13:41:00,
2013-09-23 08:46:00,62.1,59.1,29.91,NE,41,0.0,2.0,90,0.00,,,0.00,WeatherCatV1.02B3,2013-09-23 13:46:00,
2013-09-23 08:51:00,62.7,59.1,29.91,NE,41,1.0,3.0,88,0.00,,,0.00,WeatherCatV1.02B3,2013-09-23 13:51:00,
2013-09-23 08:56:00,63.1,59.5,29.90,NE,41,0.0,0.0,88,0.00,,,0.00,WeatherCatV1.02B3,2013-09-23 13:56:00,
2013-09-23 09:01:00,63.5,59.9,29.91,NE,41,0.0,1.0,88,0.00,,,0.00,WeatherCatV1.02B3,2013-09-23 14:01:00,
2013-09-23 09:06:00,64.1,60.5,29.91,NE,41,0.0,2.0,88,0.00,,,0.00,WeatherCatV1.02B3,2013-09-23 14:06:00,
2013-09-23 09:11:00,64.6,61.0,29.91,NE,41,0.0,0.0,88,0.00,,,0.00,WeatherCatV1.02B3,2013-09-23 14:11:00,
2013-09-23 09:16:00,65.1,61.1,29.91,NE,35,0.0,5.0,87,0.00,,,0.00,WeatherCatV1.02B3,2013-09-23 14:16:00,
2013-09-23 09:21:00,65.7,61.7,29.91,NE,36,4.0,4.0,87,0.00,,,0.00,WeatherCatV1.02B3,2013-09-23 14:21:00,
2013-09-23 09:26:00,66.4,61.7,29.91,NE,51,0.0,0.0,85,0.00,,,0.00,WeatherCatV1.02B3,2013-09-23 14:26:00,
2013-09-23 09:31:00,67.0,62.3,29.91,NE,51,0.0,0.0,85,0.00,,,0.00,WeatherCatV1.02B3,2013-09-23 14:31:00,
2013-09-23 09:36:00,67.4,62.7,29.91,NE,51,0.0,0.0,85,0.00,,,0.00,WeatherCatV1.02B3,2013-09-23 14:36:00,
2013-09-23 09:41:00,67.9,62.9,29.92,NE,51,0.0,1.0,84,0.00,,,0.00,WeatherCatV1.02B3,2013-09-23 14:41:00,
2013-09-23 09:46:00,68.5,63.5,29.92,NE,51,0.0,0.0,84,0.00,,,0.00,WeatherCatV1.02B3,2013-09-23 14:46:00,
2013-09-23 09:51:00,69.0,63.6,29.92,ENE,61,0.0,5.0,83,0.00,,,0.00,WeatherCatV1.02B3,2013-09-23 14:51:00,
2013-09-23 09:56:00,69.7,63.6,29.92,NE,42,2.0,5.0,81,0.00,,,0.00,WeatherCatV1.02B3,2013-09-23 14:56:00,
2013-09-23 10:01:00,70.3,63.8,29.92,NNE,30,2.0,3.0,80,0.00,,,0.00,WeatherCatV1.02B3,2013-09-23 15:01:00,
2013-09-23 10:06:00,70.9,64.4,29.92,NE,44,0.0,2.0,80,0.00,,,0.00,WeatherCatV1.02B3,2013-09-23 15:06:00,
2013-09-23 10:11:00,71.4,64.9,29.91,SE,128,0.0,4.0,80,0.00,,,0.00,WeatherCatV1.02B3,2013-09-23 15:11:00,
2013-09-23 10:16:00,71.8,64.9,29.92,NE,53,0.0,1.0,79,0.00,,,0.00,WeatherCatV1.02B3,2013-09-23 15:16:00,
2013-09-23 10:21:00,72.2,65.3,29.92,East,79,0.0,5.0,79,0.00,,,0.00,WeatherCatV1.02B3,2013-09-23 15:21:00,
2013-09-23 10:26:00,72.7,65.4,29.92,NE,56,0.0,0.0,78,0.00,,,0.00,WeatherCatV1.02B3,2013-09-23 15:26:00,
2013-09-23 10:31:00,73.1,65.4,29.92,ESE,116,0.0,0.0,77,0.00,,,0.00,WeatherCatV1.02B3,2013-09-23 15:31:00,
2013-09-23 10:36:00,73.6,65.9,29.91,NE,35,2.0,4.0,77,0.00,,,0.00,WeatherCatV1.02B3,2013-09-23 15:36:00,
2013-09-23 10:41:00,74.2,66.9,29.91,NE,51,7.0,7.0,78,0.00,,,0.00,WeatherCatV1.02B3,2013-09-23 15:41:00,
2013-09-23 10:46:00,74.7,66.6,29.91,NE,54,0.0,4.0,76,0.00,,,0.00,WeatherCatV1.02B3,2013-09-23 15:46:00,
2013-09-23 10:51:00,75.1,66.6,29.91,NE,55,0.0,3.0,75,0.00,,,0.00,WeatherCatV1.02B3,2013-09-23 15:51:00,
2013-09-23 10:56:00,75.4,66.5,29.91,NNE,33,1.0,1.0,74,0.00,,,0.00,WeatherCatV1.02B3,2013-09-23 15:56:00,
2013-09-23 11:01:00,75.7,66.8,29.91,NE,55,0.0,0.0,74,0.00,,,0.00,WeatherCatV1.02B3,2013-09-23 16:01:00,
2013-09-23 11:06:00,76.1,67.2,29.91,SSE,149,0.0,2.0,74,0.00,,,0.00,WeatherCatV1.02B3,2013-09-23 16:06:00,
2013-09-23 11:11:00,76.3,67.4,29.91,NE,42,0.0,3.0,74,0.00,,,0.00,WeatherCatV1.02B3,2013-09-23 16:11:00,
2013-09-23 11:16:00,76.6,67.7,29.91,NE,42,0.0,2.0,74,0.00,,,0.00,WeatherCatV1.02B3,2013-09-23 16:16:00,
2013-09-23 11:21:00,76.8,67.9,29.91,SE,132,0.0,6.0,74,0.00,,,0.00,WeatherCatV1.02B3,2013-09-23 16:21:00,
2013-09-23 11:26:00,77.1,67.8,29.91,NE,51,2.0,2.0,73,0.00,,,0.00,WeatherCatV1.02B3,2013-09-23 16:26:00,
2013-09-23 11:31:00,77.4,68.0,29.91,SE,128,0.0,0.0,73,0.00,,,0.00,WeatherCatV1.02B3,2013-09-23 16:31:00,
2013-09-23 11:36:00,77.9,67.7,29.91,NE,51,1.0,5.0,71,0.00,,,0.00,WeatherCatV1.02B3,2013-09-23 16:36:00,
2013-09-23 11:41:00,78.2,68.0,29.91,South,191,0.0,4.0,71,0.00,,,0.00,WeatherCatV1.02B3,2013-09-23 16:41:00,
2013-09-23 11:46:00,78.6,68.8,29.91,South,185,0.0,1.0,72,0.00,,,0.00,WeatherCatV1.02B3,2013-09-23 16:46:00,
2013-09-23 11:51:00,78.9,68.3,29.91,South,185,0.0,1.0,70,0.00,,,0.00,WeatherCatV1.02B3,2013-09-23 16:51:00,
2013-09-23 11:56:00,79.1,68.9,29.91,SSE,166,0.0,1.0,71,0.00,,,0.00,WeatherCatV1.02B3,2013-09-23 16:56:00,
2013-09-23 12:01:00,79.4,69.6,29.91,SSE,153,1.0,1.0,72,0.00,,,0.00,WeatherCatV1.02B3,2013-09-23 17:01:00,
2013-09-23 12:06:00,79.7,69.0,29.90,SE,140,0.0,0.0,70,0.00,,,0.00,WeatherCatV1.02B3,2013-09-23 17:06:00,
2013-09-23 12:11:00,79.8,68.7,29.90,SE,140,0.0,0.0,69,0.00,,,0.00,WeatherCatV1.02B3,2013-09-23 17:11:00,
2013-09-23 12:16:00,80.2,70.3,29.90,NE,55,0.0,4.0,72,0.00,,,0.00,WeatherCatV1.02B3,2013-09-23 17:16:00,
2013-09-23 12:21:00,80.5,69.4,29.90,NNW,340,0.0,3.0,69,0.00,,,0.00,WeatherCatV1.02B3,2013-09-23 17:21:00,
2013-09-23 12:26:00,81.1,69.9,29.90,NNW,340,0.0,0.0,69,0.00,,,0.00,WeatherCatV1.02B3,2013-09-23 17:26:00,
2013-09-23 12:31:00,81.4,69.8,29.90,NNW,340,0.0,0.0,68,0.00,,,0.00,WeatherCatV1.02B3,2013-09-23 17:31:00,
2013-09-23 12:36:00,81.5,69.5,29.90,NNW,340,0.0,0.0,67,0.00,,,0.00,WeatherCatV1.02B3,2013-09-23 17:36:00,
2013-09-23 12:41:00,82.0,69.9,29.89,NNW,334,0.0,0.0,67,0.00,,,0.00,WeatherCatV1.02B3,2013-09-23 17:41:00,
2013-09-23 12:46:00,82.4,69.4,29.89,SE,134,0.0,5.0,65,0.00,,,0.00,WeatherCatV1.02B3,2013-09-23 17:46:00,
2013-09-23 12:51:00,82.8,70.3,29.89,SE,134,0.0,0.0,66,0.00,,,0.00,WeatherCatV1.02B3,2013-09-23 17:51:00,
2013-09-23 12:56:00,82.8,69.3,29.89,North,355,0.0,5.0,64,0.00,,,0.00,WeatherCatV1.02B3,2013-09-23 17:56:00,
2013-09-23 13:01:00,82.7,70.6,29.89,NE,50,0.0,5.0,67,0.00,,,0.00,WeatherCatV1.02B3,2013-09-23 18:01:00,
2013-09-23 13:06:00,82.8,69.8,29.88,North,355,2.0,3.0,65,0.00,,,0.00,WeatherCatV1.02B3,2013-09-23 18:06:00,
2013-09-23 13:11:00,82.7,70.6,29.88,NNW,333,0.0,2.0,67,0.00,,,0.00,WeatherCatV1.02B3,2013-09-23 18:11:00,
2013-09-23 13:16:00,82.5,70.0,29.88,North,0,0.0,4.0,66,0.00,,,0.00,WeatherCatV1.02B3,2013-09-23 18:16:00,
2013-09-23 13:21:00,82.4,70.3,29.88,NNE,15,0.0,4.0,67,0.00,,,0.00,WeatherCatV1.02B3,2013-09-23 18:21:00,
2013-09-23 13:26:00,82.4,69.4,29.88,North,11,3.0,4.0,65,0.00,,,0.00,WeatherCatV1.02B3,2013-09-23 18:26:00,
2013-09-23 13:31:00,82.4,70.3,29.88,North,355,0.0,4.0,67,0.00,,,0.00,WeatherCatV1.02B3,2013-09-23 18:31:00,
2013-09-23 13:36:00,82.6,70.1,29.87,North,351,0.0,2.0,66,0.00,,,0.00,WeatherCatV1.02B3,2013-09-23 18:36:00,
2013-09-23 13:41:00,83.0,70.0,29.87,North,355,0.0,1.0,65,0.00,,,0.00,WeatherCatV1.02B3,2013-09-23 18:41:00,
2013-09-23 13:46:00,83.2,70.2,29.87,NE,53,2.0,7.0,65,0.00,,,0.00,WeatherCatV1.02B3,2013-09-23 18:46:00,
2013-09-23 13:51:00,83.4,70.8,29.87,North,0,0.0,1.0,66,0.00,,,0.00,WeatherCatV1.02B3,2013-09-23 18:51:00,
2013-09-23 13:56:00,83.6,70.6,29.87,NNW,333,2.0,3.0,65,0.00,,,0.00,WeatherCatV1.02B3,2013-09-23 18:56:00,
2013-09-23 14:01:00,83.3,69.8,29.87,North,9,0.0,4.0,64,0.00,,,0.00,WeatherCatV1.02B3,2013-09-23 19:01:00,
2013-09-23 14:06:00,83.1,70.5,29.87,NNE,22,0.0,1.0,66,0.00,,,0.00,WeatherCatV1.02B3,2013-09-23 19:06:00,
2013-09-23 14:11:00,83.0,70.4,29.87,NNE,15,1.0,2.0,66,0.00,,,0.00,WeatherCatV1.02B3,2013-09-23 19:11:00,
2013-09-23 14:16:00,82.9,70.3,29.87,NNE,24,1.0,3.0,66,0.00,,,0.00,WeatherCatV1.02B3,2013-09-23 19:16:00,
2013-09-23 14:21:00,82.7,70.6,29.86,North,355,0.0,4.0,67,0.00,,,0.00,WeatherCatV1.02B3,2013-09-23 19:21:00,
2013-09-23 14:26:00,82.6,70.1,29.86,North,355,0.0,1.0,66,0.00,,,0.00,WeatherCatV1.02B3,2013-09-23 19:26:00,
2013-09-23 14:31:00,82.4,69.9,29.86,North,355,0.0,1.0,66,0.00,,,0.00,WeatherCatV1.02B3,2013-09-23 19:31:00,
2013-09-23 14:36:00,82.3,69.8,29.86,North,355,0.0,0.0,66,0.00,,,0.00,WeatherCatV1.02B3,2013-09-23 19:36:00,
2013-09-23 14:41:00,82.2,69.7,29.86,North,355,0.0,1.0,66,0.00,,,0.00,WeatherCatV1.02B3,2013-09-23 19:41:00,
2013-09-23 14:46:00,82.1,70.0,29.86,North,355,0.0,1.0,67,0.00,,,0.00,WeatherCatV1.02B3,2013-09-23 19:46:00,
2013-09-23 14:51:00,82.2,70.6,29.86,North,355,0.0,1.0,68,0.00,,,0.00,WeatherCatV1.02B3,2013-09-23 19:51:00,
2013-09-23 14:56:00,82.3,70.2,29.86,North,355,0.0,2.0,67,0.00,,,0.00,WeatherCatV1.02B3,2013-09-23 19:56:00,
2013-09-23 15:01:00,82.5,70.4,29.86,North,355,0.0,2.0,67,0.00,,,0.00,WeatherCatV1.02B3,2013-09-23 20:01:00,
2013-09-23 15:06:00,82.7,70.6,29.86,North,355,0.0,0.0,67,0.00,,,0.00,WeatherCatV1.02B3,2013-09-23 20:06:00,
2013-09-23 15:11:00,82.9,70.3,29.86,North,355,0.0,0.0,66,0.00,,,0.00,WeatherCatV1.02B3,2013-09-23 20:11:00,
2013-09-23 15:16:00,83.0,69.5,29.86,North,355,0.0,0.0,64,0.00,,,0.00,WeatherCatV1.02B3,2013-09-23 20:16:00,
2013-09-23 15:21:00,83.0,70.0,29.85,North,355,0.0,0.0,65,0.00,,,0.00,WeatherCatV1.02B3,2013-09-23 20:21:00,
2013-09-23 15:26:00,83.1,71.0,29.85,North,355,0.0,2.0,67,0.00,,,0.00,WeatherCatV1.02B3,2013-09-23 20:26:00,
2013-09-23 15:31:00,83.1,71.0,29.85,North,355,0.0,1.0,67,0.00,,,0.00,WeatherCatV1.02B3,2013-09-23 20:31:00,
2013-09-23 15:36:00,83.2,71.1,29.85,North,355,0.0,4.0,67,0.00,,,0.00,WeatherCatV1.02B3,2013-09-23 20:36:00,
2013-09-23 15:41:00,83.2,70.2,29.85,North,355,0.0,0.0,65,0.00,,,0.00,WeatherCatV1.02B3,2013-09-23 20:41:00,
2013-09-23 15:46:00,83.3,71.6,29.85,North,355,1.0,1.0,68,0.00,,,0.00,WeatherCatV1.02B3,2013-09-23 20:46:00,
2013-09-23 15:51:00,83.3,71.2,29.85,North,355,0.0,0.0,67,0.00,,,0.00,WeatherCatV1.02B3,2013-09-23 20:51:00,
2013-09-23 15:56:00,83.4,71.3,29.86,North,355,0.0,0.0,67,0.00,,,0.00,WeatherCatV1.02B3,2013-09-23 20:56:00,
2013-09-23 16:01:00,83.5,71.4,29.85,North,355,0.0,3.0,67,0.00,,,0.00,WeatherCatV1.02B3,2013-09-23 21:01:00,
2013-09-23 16:06:00,83.6,71.9,29.85,NNE,15,0.0,0.0,68,0.00,,,0.00,WeatherCatV1.02B3,2013-09-23 21:06:00,
2013-09-23 16:11:00,83.7,71.5,29.85,NNE,15,0.0,0.0,67,0.00,,,0.00,WeatherCatV1.02B3,2013-09-23 21:11:00,
2013-09-23 16:16:00,83.8,72.5,29.85,NNE,15,0.0,1.0,69,0.00,,,0.00,WeatherCatV1.02B3,2013-09-23 21:16:00,
2013-09-23 16:21:00,83.8,71.6,29.85,NNE,15,0.0,0.0,67,0.00,,,0.00,WeatherCatV1.02B3,2013-09-23 21:21:00,
2013-09-23 16:26:00,83.8,72.1,29.85,NNE,15,0.0,0.0,68,0.00,,,0.00,WeatherCatV1.02B3,2013-09-23 21:26:00,
2013-09-23 16:31:00,83.8,71.2,29.85,NNE,15,0.0,0.0,66,0.00,,,0.00,WeatherCatV1.02B3,2013-09-23 21:31:00,
2013-09-23 16:36:00,83.8,72.5,29.85,NNE,15,0.0,0.0,69,0.00,,,0.00,WeatherCatV1.02B3,2013-09-23 21:36:00,
2013-09-23 16:41:00,83.8,71.6,29.85,NNE,15,0.0,1.0,67,0.00,,,0.00,WeatherCatV1.02B3,2013-09-23 21:41:00,
2013-09-23 16:46:00,83.6,71.5,29.85,NNE,15,0.0,0.0,67,0.00,,,0.00,WeatherCatV1.02B3,2013-09-23 21:46:00,
2013-09-23 16:51:00,83.5,71.8,29.85,NNE,15,0.0,0.0,68,0.00,,,0.00,WeatherCatV1.02B3,2013-09-23 21:51:00,
2013-09-23 16:56:00,83.3,71.2,29.85,NNE,15,0.0,1.0,67,0.00,,,0.00,WeatherCatV1.02B3,2013-09-23 21:56:00,
2013-09-23 17:01:00,83.1,71.4,29.85,NNE,15,0.0,0.0,68,0.00,,,0.00,WeatherCatV1.02B3,2013-09-23 22:01:00,
2013-09-23 17:06:00,83.1,71.8,29.85,NNE,15,0.0,2.0,69,0.00,,,0.00,WeatherCatV1.02B3,2013-09-23 22:06:00,
2013-09-23 17:11:00,82.9,71.7,29.85,NNE,15,0.0,0.0,69,0.00,,,0.00,WeatherCatV1.02B3,2013-09-23 22:11:00,
2013-09-23 17:16:00,82.8,71.6,29.86,NNE,15,0.0,0.0,69,0.00,,,0.00,WeatherCatV1.02B3,2013-09-23 22:16:00,
2013-09-23 17:21:00,82.7,71.9,29.86,NNE,15,0.0,0.0,70,0.00,,,0.00,WeatherCatV1.02B3,2013-09-23 22:21:00,
2013-09-23 17:26:00,82.5,71.7,29.86,NNE,15,0.0,0.0,70,0.00,,,0.00,WeatherCatV1.02B3,2013-09-23 22:26:00,
2013-09-23 17:31:00,82.3,71.5,29.86,NNE,15,0.0,0.0,70,0.00,,,0.00,WeatherCatV1.02B3,2013-09-23 22:31:00,
2013-09-23 17:36:00,82.2,71.4,29.86,NNE,15,0.0,0.0,70,0.00,,,0.00,WeatherCatV1.02B3,2013-09-23 22:36:00,
2013-09-23 17:41:00,82.1,71.7,29.86,NNE,15,0.0,0.0,71,0.00,,,0.00,WeatherCatV1.02B3,2013-09-23 22:41:00,
2013-09-23 17:46:00,82.0,72.1,29.87,NNE,15,0.0,0.0,72,0.00,,,0.00,WeatherCatV1.02B3,2013-09-23 22:46:00,
2013-09-23 17:51:00,81.9,72.0,29.86,NNE,15,0.0,0.0,72,0.00,,,0.00,WeatherCatV1.02B3,2013-09-23 22:51:00,
2013-09-23 17:56:00,81.8,71.9,29.86,NNE,15,0.0,0.0,72,0.00,,,0.00,WeatherCatV1.02B3,2013-09-23 22:56:00,
2013-09-23 18:01:00,81.6,72.1,29.86,NNE,15,0.0,0.0,73,0.00,,,0.00,WeatherCatV1.02B3,2013-09-23 23:01:00,
2013-09-23 18:06:00,81.6,72.5,29.86,NNE,15,0.0,0.0,74,0.00,,,0.00,WeatherCatV1.02B3,2013-09-23 23:06:00,
2013-09-23 18:11:00,81.4,72.3,29.86,NNE,15,0.0,0.0,74,0.00,,,0.00,WeatherCatV1.02B3,2013-09-23 23:11:00,
2013-09-23 18:16:00,81.2,72.1,29.86,NNE,15,0.0,0.0,74,0.00,,,0.00,WeatherCatV1.02B3,2013-09-23 23:16:00,
2013-09-23 18:21:00,81.1,72.4,29.86,NNE,15,0.0,0.0,75,0.00,,,0.00,WeatherCatV1.02B3,2013-09-23 23:21:00,
2013-09-23 18:26:00,80.9,72.2,29.86,NNE,15,0.0,0.0,75,0.00,,,0.00,WeatherCatV1.02B3,2013-09-23 23:26:00,
2013-09-23 18:31:00,80.7,72.0,29.86,NNE,15,0.0,0.0,75,0.00,,,0.00,WeatherCatV1.02B3,2013-09-23 23:31:00,
2013-09-23 18:36:00,80.5,71.8,29.86,NNE,15,0.0,0.0,75,0.00,,,0.00,WeatherCatV1.02B3,2013-09-23 23:36:00,
2013-09-23 18:41:00,80.3,72.0,29.86,NNE,15,0.0,0.0,76,0.00,,,0.00,WeatherCatV1.02B3,2013-09-23 23:41:00,
2013-09-23 18:46:00,80.2,71.9,29.86,NNE,15,0.0,0.0,76,0.00,,,0.00,WeatherCatV1.02B3,2013-09-23 23:46:00,
2013-09-23 18:51:00,80.0,71.7,29.86,NNE,15,0.0,0.0,76,0.00,,,0.00,WeatherCatV1.02B3,2013-09-23 23:51:00,
2013-09-23 18:56:00,79.8,71.9,29.86,NNE,15,0.0,0.0,77,0.00,,,0.00,WeatherCatV1.02B3,2013-09-23 23:56:00,
2013-09-23 19:01:00,79.7,71.8,29.86,NNE,15,0.0,0.0,77,0.00,,,0.00,WeatherCatV1.02B3,2013-09-24 00:01:00,
2013-09-23 19:06:00,79.5,72.0,29.86,NNE,15,0.0,0.0,78,0.00,,,0.00,WeatherCatV1.02B3,2013-09-24 00:06:00,
2013-09-23 19:11:00,79.3,71.8,29.86,NNE,15,0.0,0.0,78,0.00,,,0.00,WeatherCatV1.02B3,2013-09-24 00:11:00,
2013-09-23 19:16:00,79.1,71.6,29.86,NNE,15,0.0,0.0,78,0.00,,,0.00,WeatherCatV1.02B3,2013-09-24 00:16:00,
2013-09-23 19:21:00,78.8,71.7,29.86,NNE,15,0.0,0.0,79,0.00,,,0.00,WeatherCatV1.02B3,2013-09-24 00:21:00,
2013-09-23 19:26:00,78.6,71.9,29.86,NNE,15,0.0,0.0,80,0.00,,,0.00,WeatherCatV1.02B3,2013-09-24 00:26:00,
2013-09-23 19:31:00,78.3,71.6,29.86,NNE,15,0.0,0.0,80,0.00,,,0.00,WeatherCatV1.02B3,2013-09-24 00:31:00,
2013-09-23 19:36:00,78.0,71.3,29.86,NNE,15,0.0,0.0,80,0.00,,,0.00,WeatherCatV1.02B3,2013-09-24 00:36:00,
2013-09-23 19:41:00,77.8,71.5,29.86,NNE,15,0.0,0.0,81,0.00,,,0.00,WeatherCatV1.02B3,2013-09-24 00:41:00,
2013-09-23 19:46:00,77.6,71.3,29.86,NNE,15,0.0,0.0,81,0.00,,,0.00,WeatherCatV1.02B3,2013-09-24 00:46:00,
2013-09-23 19:51:00,77.4,71.5,29.86,NNE,15,0.0,0.0,82,0.00,,,0.00,WeatherCatV1.02B3,2013-09-24 00:51:00,
2013-09-23 19:56:00,77.3,71.4,29.86,NNE,15,0.0,0.0,82,0.00,,,0.00,WeatherCatV1.02B3,2013-09-24 00:56:00,
2013-09-23 20:01:00,77.1,71.5,29.86,NNE,15,0.0,0.0,83,0.00,,,0.00,WeatherCatV1.02B3,2013-09-24 01:01:00,
2013-09-23 20:06:00,76.9,71.3,29.86,NNE,15,0.0,0.0,83,0.00,,,0.00,WeatherCatV1.02B3,2013-09-24 01:06:00,
2013-09-23 20:11:00,76.7,71.5,29.86,NNE,15,0.0,0.0,84,0.00,,,0.00,WeatherCatV1.02B3,2013-09-24 01:11:00,
2013-09-23 20:16:00,76.6,71.4,29.87,NNE,15,0.0,0.0,84,0.00,,,0.00,WeatherCatV1.02B3,2013-09-24 01:16:00,
2013-09-23 20:21:00,76.4,71.5,29.87,NNE,15,0.0,0.0,85,0.00,,,0.00,WeatherCatV1.02B3,2013-09-24 01:21:00,
2013-09-23 20:26:00,76.2,71.3,29.87,NNE,15,0.0,0.0,85,0.00,,,0.00,WeatherCatV1.02B3,2013-09-24 01:26:00,
2013-09-23 20:31:00,76.1,71.6,29.87,NNE,15,0.0,0.0,86,0.00,,,0.00,WeatherCatV1.02B3,2013-09-24 01:31:00,
2013-09-23 20:36:00,76.0,71.5,29.87,NNE,15,0.0,0.0,86,0.00,,,0.00,WeatherCatV1.02B3,2013-09-24 01:36:00,
2013-09-23 20:41:00,75.8,71.3,29.88,NNE,15,0.0,0.0,86,0.00,,,0.00,WeatherCatV1.02B3,2013-09-24 01:41:00,
2013-09-23 20:46:00,75.7,71.2,29.88,NNE,15,0.0,0.0,86,0.00,,,0.00,WeatherCatV1.02B3,2013-09-24 01:46:00,
2013-09-23 20:51:00,75.7,71.5,29.88,NNE,15,0.0,0.0,87,0.00,,,0.00,WeatherCatV1.02B3,2013-09-24 01:51:00,
2013-09-23 20:56:00,75.6,71.4,29.88,NNE,15,0.0,0.0,87,0.00,,,0.00,WeatherCatV1.02B3,2013-09-24 01:56:00,
2013-09-23 21:01:00,75.5,71.3,29.88,NNE,15,0.0,0.0,87,0.00,,,0.00,WeatherCatV1.02B3,2013-09-24 02:01:00,
2013-09-23 21:06:00,75.4,71.2,29.88,NNE,15,0.0,0.0,87,0.00,,,0.00,WeatherCatV1.02B3,2013-09-24 02:06:00,
2013-09-23 21:11:00,75.2,71.1,29.88,NNE,15,0.0,0.0,87,0.00,,,0.00,WeatherCatV1.02B3,2013-09-24 02:11:00,
2013-09-23 21:16:00,75.2,71.1,29.88,NNE,15,0.0,0.0,87,0.00,,,0.00,WeatherCatV1.02B3,2013-09-24 02:16:00,
2013-09-23 21:21:00,75.0,71.2,29.88,NNE,15,0.0,0.0,88,0.00,,,0.00,WeatherCatV1.02B3,2013-09-24 02:21:00,
2013-09-23 21:26:00,74.9,71.1,29.88,NNE,15,0.0,0.0,88,0.00,,,0.00,WeatherCatV1.02B3,2013-09-24 02:26:00,
2013-09-23 21:31:00,74.8,71.0,29.88,NNE,15,0.0,0.0,88,0.00,,,0.00,WeatherCatV1.02B3,2013-09-24 02:31:00,
2013-09-23 21:36:00,74.7,70.9,29.88,NNE,15,0.0,0.0,88,0.00,,,0.00,WeatherCatV1.02B3,2013-09-24 02:36:00,
2013-09-23 21:41:00,74.6,71.1,29.89,NNE,15,0.0,0.0,89,0.00,,,0.00,WeatherCatV1.02B3,2013-09-24 02:41:00,
2013-09-23 21:46:00,74.6,71.1,29.89,NNE,15,0.0,0.0,89,0.00,,,0.00,WeatherCatV1.02B3,2013-09-24 02:46:00,
2013-09-23 21:51:00,74.5,71.0,29.89,NNE,15,0.0,0.0,89,0.00,,,0.00,WeatherCatV1.02B3,2013-09-24 02:51:00,
2013-09-23 21:56:00,74.4,70.9,29.89,NNE,15,0.0,0.0,89,0.00,,,0.00,WeatherCatV1.02B3,2013-09-24 02:56:00,
2013-09-23 22:01:00,74.3,70.8,29.89,NNE,15,0.0,0.0,89,0.00,,,0.00,WeatherCatV1.02B3,2013-09-24 03:01:00,
2013-09-23 22:06:00,74.3,71.2,29.89,NNE,15,0.0,1.0,90,0.00,,,0.00,WeatherCatV1.02B3,2013-09-24 03:06:00,
2013-09-23 22:11:00,74.2,71.1,29.89,NNE,15,0.0,0.0,90,0.00,,,0.00,WeatherCatV1.02B3,2013-09-24 03:11:00,
2013-09-23 22:16:00,74.1,71.0,29.90,NNE,15,0.0,0.0,90,0.00,,,0.00,WeatherCatV1.02B3,2013-09-24 03:16:00,
2013-09-23 22:21:00,74.1,71.0,29.90,NNE,15,0.0,0.0,90,0.00,,,0.00,WeatherCatV1.02B3,2013-09-24 03:21:00,
2013-09-23 22:26:00,74.0,70.9,29.90,NNE,15,0.0,0.0,90,0.00,,,0.00,WeatherCatV1.02B3,2013-09-24 03:26:00,
2013-09-23 22:31:00,73.9,70.8,29.90,NNE,15,0.0,0.0,90,0.00,,,0.00,WeatherCatV1.02B3,2013-09-24 03:31:00,
2013-09-23 22:36:00,73.9,70.8,29.90,NNE,15,0.0,0.0,90,0.00,,,0.00,WeatherCatV1.02B3,2013-09-24 03:36:00,
2013-09-23 22:41:00,73.8,70.7,29.90,NNE,15,0.0,0.0,90,0.00,,,0.00,WeatherCatV1.02B3,2013-09-24 03:41:00,
2013-09-23 22:46:00,73.7,70.9,29.90,NNE,15,0.0,1.0,91,0.00,,,0.00,WeatherCatV1.02B3,2013-09-24 03:46:00,
2013-09-23 22:51:00,73.7,70.9,29.90,NNE,15,0.0,0.0,91,0.00,,,0.00,WeatherCatV1.02B3,2013-09-24 03:51:00,
2013-09-23 22:56:00,73.7,70.9,29.90,NNE,15,0.0,3.0,91,0.00,,,0.00,WeatherCatV1.02B3,2013-09-24 03:56:00,
2013-09-23 23:01:00,73.7,70.9,29.90,NNE,15,0.0,0.0,91,0.00,,,0.00,WeatherCatV1.02B3,2013-09-24 04:01:00,
2013-09-23 23:06:00,73.6,70.8,29.90,NNE,15,0.0,0.0,91,0.00,,,0.00,WeatherCatV1.02B3,2013-09-24 04:06:00,
2013-09-23 23:11:00,73.6,70.8,29.90,SE,126,0.0,2.0,91,0.00,,,0.00,WeatherCatV1.02B3,2013-09-24 04:11:00,
2013-09-23 23:16:00,73.6,70.8,29.90,SE,126,0.0,0.0,91,0.00,,,0.00,WeatherCatV1.02B3,2013-09-24 04:16:00,
2013-09-23 23:21:00,73.6,70.8,29.90,SE,126,0.0,2.0,91,0.00,,,0.00,WeatherCatV1.02B3,2013-09-24 04:21:00,
2013-09-23 23:26:00,73.7,70.9,29.90,SE,126,0.0,0.0,91,0.00,,,0.00,WeatherCatV1.02B3,2013-09-24 04:26:00,
2013-09-23 23:31:00,73.7,70.9,29.90,SE,126,0.0,1.0,91,0.00,,,0.00,WeatherCatV1.02B3,2013-09-24 04:31:00,
2013-09-23 23:36:00,73.8,71.0,29.90,SE,126,1.0,1.0,91,0.00,,,0.00,WeatherCatV1.02B3,2013-09-24 04:36:00,
2013-09-23 23:41:00,73.9,71.1,29.90,SE,126,0.0,5.0,91,0.00,,,0.00,WeatherCatV1.02B3,2013-09-24 04:41:00,
2013-09-23 23:46:00,74.0,71.2,29.90,SE,126,0.0,1.0,91,0.00,,,0.00,WeatherCatV1.02B3,2013-09-24 04:46:00,
2013-09-23 23:51:00,74.0,71.2,29.90,SE,128,0.0,6.0,91,0.00,,,0.00,WeatherCatV1.02B3,2013-09-24 04:51:00,
2013-09-23 23:56:00,74.1,71.3,29.90,SE,128,0.0,1.0,91,0.00,,,0.00,WeatherCatV1.02B3,2013-09-24 04:56:00,